Time;durP1;ratioP1;P1;durP2;ratioP2;P2;SDS_P1;SDS_P2;PMS_P1;PMS_P2;Temp;Humidity;BMP_temperature;BMP_pressure;BME280_temperature;BME280_humidity;BME280_pressure;Samples;Min_cycle;Max_cycle;Signal;HPM_P1;HPM_P2
2023/08/27 00:01:04;;;;;;;10.50;6.57;;;16.50;99.90;;;;;;5086480;28;20194;-60
2023/08/27 00:03:29;;;;;;;11.50;7.40;;;16.50;99.90;;;;;;5089186;28;20619;-60
2023/08/27 00:05:56;;;;;;;9.67;7.27;;;16.50;99.90;;;;;;5089659;28;20184;-60
2023/08/27 00:08:22;;;;;;;11.23;7.30;;;16.50;99.90;;;;;;5072070;28;20212;-60
2023/08/27 00:10:47;;;;;;;9.03;6.47;;;16.50;99.90;;;;;;5086411;28;21028;-59
2023/08/27 00:13:13;;;;;;;11.57;7.50;;;16.50;99.90;;;;;;5075421;28;20439;-60
2023/08/27 00:15:46;;;;;;;9.27;6.83;;;16.50;99.90;;;;;;5086833;28;20228;-59
2023/08/27 00:18:12;;;;;;;8.60;7.43;;;16.50;99.90;;;;;;5086313;28;20595;-59
2023/08/27 00:20:40;;;;;;;12.07;7.37;;;16.50;99.90;;;;;;5087875;28;20428;-60
2023/08/27 00:23:05;;;;;;;12.93;7.60;;;16.50;99.90;;;;;;5088293;28;20431;-60
2023/08/27 00:25:31;;;;;;;11.40;7.67;;;16.50;99.90;;;;;;5085644;28;20986;-59
2023/08/27 00:27:56;;;;;;;14.90;7.70;;;16.50;99.90;;;;;;5087158;28;20182;-61
2023/08/27 00:30:22;;;;;;;12.20;7.77;;;16.50;99.90;;;;;;5085442;28;20193;-60
2023/08/27 00:32:47;;;;;;;14.20;9.83;;;16.50;99.90;;;;;;5088497;28;20201;-60
2023/08/27 00:35:13;;;;;;;14.77;9.90;;;16.50;99.90;;;;;;5090994;28;20185;-59
2023/08/27 00:37:39;;;;;;;15.53;10.03;;;16.50;99.90;;;;;;5088536;28;20376;-61
2023/08/27 00:40:05;;;;;;;12.97;9.80;;;16.50;99.90;;;;;;5083349;28;20704;-60
2023/08/27 00:42:31;;;;;;;10.33;7.57;;;16.50;99.90;;;;;;5087876;28;20730;-60
2023/08/27 00:44:56;;;;;;;10.23;7.73;;;16.50;99.90;;;;;;5084016;28;20436;-60
2023/08/27 00:47:22;;;;;;;8.13;6.20;;;16.50;99.90;;;;;;5068621;28;20201;-60
2023/08/27 00:49:49;;;;;;;9.80;6.70;;;16.50;99.90;;;;;;5087264;28;20199;-59
2023/08/27 00:52:17;;;;;;;10.00;7.13;;;16.40;99.90;;;;;;5088648;28;20289;-60
2023/08/27 00:54:43;;;;;;;7.60;5.70;;;16.40;99.90;;;;;;5087206;28;20519;-60
2023/08/27 00:57:09;;;;;;;7.43;5.77;;;16.40;99.90;;;;;;5070940;28;20464;-60
2023/08/27 00:59:35;;;;;;;6.90;6.20;;;16.40;99.90;;;;;;5088019;28;20435;-60
2023/08/27 01:02:02;;;;;;;12.00;5.57;;;16.40;99.90;;;;;;5087470;28;20206;-62
2023/08/27 01:04:28;;;;;;;10.03;6.43;;;16.40;99.90;;;;;;5066709;28;20443;-60
2023/08/27 01:06:55;;;;;;;12.10;5.87;;;16.40;99.90;;;;;;5089287;28;20435;-60
2023/08/27 01:09:41;;;;;;;10.03;6.07;;;16.40;99.90;;;;;;5088335;28;20170;-60
2023/08/27 01:12:17;;;;;;;8.27;5.57;;;16.50;99.90;;;;;;5085775;28;20451;-60
2023/08/27 01:14:46;;;;;;;13.27;6.90;;;16.50;99.90;;;;;;5082675;28;20535;-60
2023/08/27 01:17:18;;;;;;;9.90;7.17;;;16.50;99.90;;;;;;5085273;28;20466;-60
2023/08/27 01:19:45;;;;;;;10.80;7.70;;;16.50;99.90;;;;;;5075219;28;20431;-59
2023/08/27 01:22:10;;;;;;;9.47;6.73;;;16.50;99.90;;;;;;5086662;28;20432;-59
2023/08/27 01:24:36;;;;;;;9.80;7.20;;;16.50;99.90;;;;;;5086804;28;20645;-59
2023/08/27 01:27:03;;;;;;;10.20;7.40;;;16.50;99.90;;;;;;5086695;28;20185;-60
2023/08/27 01:29:51;;;;;;;9.50;7.20;;;16.50;99.90;;;;;;5089493;28;20593;-59
2023/08/27 01:32:31;;;;;;;10.73;7.10;;;16.50;99.90;;;;;;5086926;28;20538;-62
2023/08/27 01:34:59;;;;;;;11.37;6.53;;;16.50;99.90;;;;;;5085556;28;20508;-59
2023/08/27 01:37:24;;;;;;;10.30;6.63;;;16.50;99.90;;;;;;5087718;28;20456;-59
2023/08/27 01:40:01;;;;;;;11.97;7.10;;;16.50;99.90;;;;;;5089811;28;20449;-59
2023/08/27 01:42:27;;;;;;;9.03;6.80;;;16.50;99.90;;;;;;5091960;28;20246;-59
2023/08/27 01:44:55;;;;;;;8.50;6.37;;;16.50;99.90;;;;;;5091296;28;20423;-59
2023/08/27 01:47:21;;;;;;;12.67;6.47;;;16.50;99.90;;;;;;5090578;28;20430;-60
2023/08/27 01:49:48;;;;;;;11.70;6.20;;;16.50;99.90;;;;;;5090207;28;20484;-59
2023/08/27 01:52:13;;;;;;;7.63;6.00;;;16.50;99.90;;;;;;5089689;28;20206;-59
2023/08/27 01:54:39;;;;;;;9.57;6.03;;;16.40;99.90;;;;;;5093736;28;20487;-59
2023/08/27 01:57:05;;;;;;;11.40;6.73;;;16.50;99.90;;;;;;5089444;28;20202;-59
2023/08/27 01:59:30;;;;;;;9.73;7.57;;;16.50;99.90;;;;;;5091518;28;20174;-60
2023/08/27 02:01:56;;;;;;;10.43;7.03;;;16.50;99.90;;;;;;5088609;28;20714;-60
2023/08/27 02:04:22;;;;;;;10.90;7.33;;;16.40;99.90;;;;;;5090928;28;20170;-59
2023/08/27 02:06:48;;;;;;;10.50;7.30;;;16.40;99.90;;;;;;5091881;28;20185;-62
2023/08/27 02:09:13;;;;;;;9.70;7.77;;;16.40;99.90;;;;;;5088647;28;20450;-59
2023/08/27 02:11:39;;;;;;;9.20;6.90;;;16.40;99.90;;;;;;5094032;28;20204;-60
2023/08/27 02:14:04;;;;;;;9.10;6.80;;;16.40;99.90;;;;;;5089602;28;20190;-59
2023/08/27 02:16:32;;;;;;;11.03;6.97;;;16.40;99.90;;;;;;5091337;28;20173;-58
2023/08/27 02:18:57;;;;;;;10.67;7.80;;;16.40;99.90;;;;;;5087371;28;20185;-59
2023/08/27 02:21:23;;;;;;;9.03;6.73;;;16.40;99.90;;;;;;5091781;28;20443;-60
2023/08/27 02:23:48;;;;;;;10.00;6.83;;;16.40;99.90;;;;;;5073198;28;20235;-60
2023/08/27 02:26:14;;;;;;;9.43;7.43;;;16.40;99.90;;;;;;5093094;28;20194;-60
2023/08/27 02:28:40;;;;;;;11.70;7.23;;;16.40;99.90;;;;;;5088964;28;20201;-59
2023/08/27 02:31:08;;;;;;;9.83;6.93;;;16.40;99.90;;;;;;5089610;28;20196;-59
2023/08/27 02:33:34;;;;;;;12.00;6.77;;;16.40;99.90;;;;;;5090923;28;20422;-59
2023/08/27 02:35:59;;;;;;;11.23;7.30;;;16.40;99.90;;;;;;5090319;28;20443;-59
2023/08/27 02:38:25;;;;;;;7.17;5.80;;;16.30;99.90;;;;;;5090796;28;20570;-58
2023/08/27 02:40:50;;;;;;;6.83;5.43;;;16.30;99.90;;;;;;5087123;28;20284;-59
2023/08/27 02:43:16;;;;;;;8.67;5.90;;;16.30;99.90;;;;;;5092935;28;20208;-59
2023/08/27 02:45:42;;;;;;;9.87;5.73;;;16.20;99.90;;;;;;5088806;28;20711;-59
2023/08/27 02:48:07;;;;;;;10.67;5.50;;;16.20;99.90;;;;;;5071115;28;20281;-59
2023/08/27 02:50:33;;;;;;;10.67;6.27;;;16.20;99.90;;;;;;5084924;28;20175;-60
2023/08/27 02:52:58;;;;;;;8.37;5.83;;;16.20;99.90;;;;;;5088956;28;20193;-59
2023/08/27 02:55:27;;;;;;;10.10;6.13;;;16.20;99.90;;;;;;5088696;28;21412;-59
2023/08/27 02:57:52;;;;;;;7.10;5.53;;;16.20;99.90;;;;;;5088741;28;20223;-60
2023/08/27 03:00:18;;;;;;;7.33;6.07;;;16.20;99.90;;;;;;5089109;28;20431;-59
2023/08/27 03:02:43;;;;;;;9.27;5.40;;;16.20;99.90;;;;;;5091126;28;20717;-59
2023/08/27 03:05:09;;;;;;;7.90;5.10;;;16.20;99.90;;;;;;5087001;28;20192;-59
2023/08/27 03:07:35;;;;;;;6.50;5.20;;;16.20;99.90;;;;;;5091028;28;20177;-61
2023/08/27 03:10:00;;;;;;;8.23;5.53;;;16.20;99.90;;;;;;5086310;28;20201;-59
2023/08/27 03:12:26;;;;;;;7.70;5.60;;;16.20;99.90;;;;;;5090125;28;20576;-60
2023/08/27 03:14:51;;;;;;;8.70;5.80;;;16.20;99.90;;;;;;5087948;28;20182;-60
2023/08/27 03:17:17;;;;;;;6.80;5.00;;;16.20;99.90;;;;;;5089080;28;20202;-59
2023/08/27 03:19:42;;;;;;;7.17;4.80;;;16.20;99.90;;;;;;5088962;28;20178;-60
2023/08/27 03:22:08;;;;;;;7.40;4.10;;;16.10;99.90;;;;;;5088397;28;20194;-60
2023/08/27 03:24:33;;;;;;;5.90;5.17;;;16.10;99.90;;;;;;5087210;28;20654;-60
2023/08/27 03:26:59;;;;;;;8.80;4.90;;;16.10;99.90;;;;;;5090426;28;20182;-60
2023/08/27 03:29:25;;;;;;;6.07;4.33;;;16.10;99.90;;;;;;5088253;28;20279;-60
2023/08/27 03:31:50;;;;;;;6.03;4.20;;;16.10;99.90;;;;;;5089527;28;20705;-59
2023/08/27 03:34:16;;;;;;;5.30;4.50;;;16.10;99.90;;;;;;5086741;28;20178;-59
2023/08/27 03:36:42;;;;;;;5.97;4.80;;;16.10;99.90;;;;;;5086589;28;20185;-60
2023/08/27 03:39:08;;;;;;;8.13;4.13;;;16.10;99.90;;;;;;5087760;28;20205;-59
2023/08/27 03:41:34;;;;;;;3.50;3.17;;;16.10;99.90;;;;;;5086581;28;20189;-59
2023/08/27 03:44:00;;;;;;;6.40;3.80;;;16.10;99.90;;;;;;5090196;28;20424;-59
2023/08/27 03:46:25;;;;;;;3.93;3.40;;;16.00;99.90;;;;;;5087471;28;20978;-62
2023/08/27 03:48:51;;;;;;;3.70;2.27;;;16.00;99.90;;;;;;5087851;28;20882;-60
2023/08/27 03:51:16;;;;;;;2.43;2.00;;;16.00;99.90;;;;;;5087460;28;20197;-61
2023/08/27 03:53:42;;;;;;;4.23;2.60;;;16.00;99.90;;;;;;5089331;28;20181;-60
2023/08/27 03:56:08;;;;;;;4.17;2.60;;;16.00;99.90;;;;;;5089004;28;20206;-60
2023/08/27 03:58:33;;;;;;;11.30;2.50;;;16.00;99.90;;;;;;5089002;28;20209;-60
2023/08/27 04:00:59;;;;;;;5.23;3.03;;;16.00;99.90;;;;;;5082055;28;20194;-60
2023/08/27 04:03:25;;;;;;;5.23;2.93;;;16.00;99.90;;;;;;5087851;28;20178;-60
2023/08/27 04:05:50;;;;;;;4.53;2.47;;;16.00;99.90;;;;;;5086449;28;20239;-59
2023/08/27 04:08:17;;;;;;;3.90;2.50;;;15.90;99.90;;;;;;5088611;28;20256;-59
2023/08/27 04:10:52;;;;;;;2.53;2.13;;;15.90;99.90;;;;;;5079017;28;20752;-59
2023/08/27 04:13:18;;;;;;;4.00;2.43;;;15.90;99.90;;;;;;5087577;28;20955;-59
2023/08/27 04:16:07;;;;;;;2.70;2.10;;;15.90;99.90;;;;;;5086088;28;20422;-59
2023/08/27 04:18:33;;;;;;;2.00;1.90;;;15.90;99.90;;;;;;5085773;28;20547;-61
2023/08/27 04:20:59;;;;;;;3.10;2.00;;;15.90;99.90;;;;;;5089818;28;20461;-60
2023/08/27 04:23:25;;;;;;;2.57;2.33;;;15.90;99.90;;;;;;5088974;28;20431;-60
2023/08/27 04:25:52;;;;;;;2.90;2.20;;;15.90;99.90;;;;;;5087095;28;20420;-59
2023/08/27 04:28:17;;;;;;;4.00;2.30;;;15.90;99.90;;;;;;5086694;28;20456;-59
2023/08/27 04:30:46;;;;;;;4.00;2.30;;;15.90;99.90;;;;;;5088830;28;20447;-59
2023/08/27 04:33:11;;;;;;;4.53;2.70;;;15.90;99.90;;;;;;5091359;28;20174;-59
2023/08/27 04:35:38;;;;;;;6.60;2.60;;;15.90;99.90;;;;;;5087137;28;20424;-60
2023/08/27 04:38:05;;;;;;;5.80;3.17;;;15.90;99.90;;;;;;5085469;28;20689;-59
2023/08/27 04:40:30;;;;;;;5.13;2.77;;;15.90;99.90;;;;;;5085809;28;20537;-60
2023/08/27 04:42:58;;;;;;;3.47;2.77;;;15.90;99.90;;;;;;5088852;28;20511;-59
2023/08/27 04:45:24;;;;;;;2.60;2.27;;;15.80;99.90;;;;;;5069103;28;20169;-59
2023/08/27 04:47:50;;;;;;;3.93;2.20;;;15.90;99.90;;;;;;5088970;28;20455;-59
2023/08/27 04:50:16;;;;;;;3.70;2.20;;;15.80;99.90;;;;;;5088213;28;20455;-60
2023/08/27 04:52:41;;;;;;;3.93;3.03;;;15.80;99.90;;;;;;5085596;28;20228;-59
2023/08/27 04:55:07;;;;;;;5.03;2.87;;;15.80;99.90;;;;;;5086464;28;20223;-59
2023/08/27 04:57:34;;;;;;;5.60;3.43;;;15.70;99.90;;;;;;5087146;28;20194;-60
2023/08/27 05:00:08;;;;;;;3.80;3.10;;;15.70;99.90;;;;;;5089838;28;20434;-59
2023/08/27 05:02:37;;;;;;;8.40;3.10;;;15.70;99.90;;;;;;5085427;28;20937;-59
2023/08/27 05:05:03;;;;;;;8.00;3.10;;;15.70;99.90;;;;;;5088903;28;20419;-59
2023/08/27 05:07:29;;;;;;;6.93;3.30;;;15.60;99.90;;;;;;5081504;28;20515;-60
2023/08/27 05:09:54;;;;;;;5.00;3.20;;;15.60;99.90;;;;;;5090820;28;20885;-60
2023/08/27 05:12:20;;;;;;;8.90;3.70;;;15.60;99.90;;;;;;5087202;28;20225;-60
2023/08/27 05:14:46;;;;;;;7.17;3.43;;;15.60;99.90;;;;;;5092680;28;20224;-60
2023/08/27 05:17:12;;;;;;;7.53;3.30;;;15.60;99.90;;;;;;5087987;28;20193;-59
2023/08/27 05:19:37;;;;;;;4.33;3.60;;;15.60;99.90;;;;;;5090213;28;20182;-59
2023/08/27 05:22:03;;;;;;;4.63;3.27;;;15.60;99.90;;;;;;5095531;28;20190;-58
2023/08/27 05:24:29;;;;;;;3.70;3.13;;;15.60;99.90;;;;;;5089941;28;20210;-59
2023/08/27 05:26:54;;;;;;;5.60;2.83;;;15.60;99.90;;;;;;5084627;28;20181;-60
2023/08/27 05:29:20;;;;;;;4.27;2.90;;;15.60;99.90;;;;;;5094370;28;20197;-60
2023/08/27 05:31:46;;;;;;;10.73;2.90;;;15.60;99.90;;;;;;5092681;28;20281;-59
2023/08/27 05:34:11;;;;;;;5.30;3.50;;;15.60;99.90;;;;;;5087666;28;20170;-60
2023/08/27 05:36:37;;;;;;;3.67;2.90;;;15.60;99.90;;;;;;5093410;28;20796;-60
2023/08/27 05:39:04;;;;;;;7.97;3.67;;;15.60;99.90;;;;;;5091973;28;20225;-60
2023/08/27 05:41:30;;;;;;;4.10;3.03;;;15.60;99.90;;;;;;5086789;28;20189;-59
2023/08/27 05:43:55;;;;;;;5.93;3.20;;;15.60;99.90;;;;;;5091880;28;20791;-60
2023/08/27 05:46:21;;;;;;;5.80;3.90;;;15.70;99.90;;;;;;5091868;28;20173;-61
2023/08/27 05:48:47;;;;;;;4.13;2.80;;;15.70;99.90;;;;;;5075159;28;20185;-60
2023/08/27 05:51:12;;;;;;;6.47;3.40;;;15.60;99.90;;;;;;5088999;28;20190;-60
2023/08/27 05:53:38;;;;;;;5.83;3.80;;;15.70;99.90;;;;;;5089581;28;20665;-60
2023/08/27 05:56:04;;;;;;;4.50;3.10;;;15.60;99.90;;;;;;5092206;28;20589;-61
2023/08/27 05:58:29;;;;;;;4.83;3.30;;;15.60;99.90;;;;;;5092046;28;20205;-60
2023/08/27 06:00:56;;;;;;;4.13;3.40;;;15.60;99.90;;;;;;5087720;28;20280;-59
2023/08/27 06:03:22;;;;;;;3.60;2.53;;;15.60;99.90;;;;;;5091980;28;20181;-60
2023/08/27 06:05:48;;;;;;;3.40;3.10;;;15.60;99.90;;;;;;5092826;28;20435;-60
2023/08/27 06:08:13;;;;;;;9.23;3.70;;;15.60;99.90;;;;;;5090192;28;20181;-59
2023/08/27 06:10:39;;;;;;;7.23;3.07;;;15.60;99.90;;;;;;5090095;28;20666;-59
2023/08/27 06:13:04;;;;;;;5.90;3.30;;;15.60;99.90;;;;;;5094645;28;20177;-60
2023/08/27 06:15:32;;;;;;;7.27;3.50;;;15.70;99.90;;;;;;5091563;28;20189;-59
2023/08/27 06:18:02;;;;;;;4.43;3.17;;;15.70;99.90;;;;;;5083868;28;20209;-60
2023/08/27 06:20:29;;;;;;;4.60;3.30;;;15.70;99.90;;;;;;5090893;28;20939;-60
2023/08/27 06:22:54;;;;;;;3.77;3.47;;;15.70;99.90;;;;;;5092543;28;20435;-60
2023/08/27 06:25:22;;;;;;;6.63;3.87;;;15.70;99.90;;;;;;5083522;28;20423;-59
2023/08/27 06:27:48;;;;;;;4.77;3.60;;;15.70;99.90;;;;;;5090420;28;20715;-60
2023/08/27 06:30:14;;;;;;;3.80;3.40;;;15.70;99.90;;;;;;5089980;28;20433;-61
2023/08/27 06:32:40;;;;;;;5.40;3.40;;;15.70;99.90;;;;;;5090624;28;20189;-60
2023/08/27 06:35:06;;;;;;;5.20;3.60;;;15.70;99.90;;;;;;5085833;28;20432;-60
2023/08/27 06:37:31;;;;;;;5.83;4.17;;;15.70;99.90;;;;;;5090981;28;20196;-61
2023/08/27 06:39:57;;;;;;;4.57;3.53;;;15.70;99.90;;;;;;5091869;28;20169;-61
2023/08/27 06:42:22;;;;;;;5.17;3.50;;;15.70;99.90;;;;;;5093498;28;20242;-61
2023/08/27 06:44:48;;;;;;;4.17;3.37;;;15.70;99.90;;;;;;5087773;28;20170;-60
2023/08/27 06:47:14;;;;;;;7.27;3.70;;;15.70;99.90;;;;;;5086824;28;20220;-61
2023/08/27 06:49:39;;;;;;;3.90;3.30;;;15.70;99.90;;;;;;5090296;28;20178;-60
2023/08/27 06:52:05;;;;;;;4.90;3.43;;;15.70;99.90;;;;;;5070478;28;20202;-61
2023/08/27 06:54:31;;;;;;;4.73;3.33;;;15.70;99.90;;;;;;5088567;28;20185;-60
2023/08/27 06:56:56;;;;;;;9.20;4.10;;;15.70;99.90;;;;;;5094704;28;20177;-61
2023/08/27 06:59:22;;;;;;;3.97;3.40;;;15.70;99.90;;;;;;5088573;28;20230;-62
2023/08/27 07:01:47;;;;;;;4.13;3.63;;;15.70;99.90;;;;;;5069842;28;20204;-60
2023/08/27 07:04:13;;;;;;;6.37;3.60;;;15.70;99.90;;;;;;5091218;28;20169;-60
2023/08/27 07:06:39;;;;;;;3.57;2.90;;;15.80;99.90;;;;;;5088913;28;20186;-61
2023/08/27 07:09:05;;;;;;;3.67;3.10;;;15.90;99.90;;;;;;5086814;28;20261;-61
2023/08/27 07:11:32;;;;;;;5.03;3.70;;;16.00;99.90;;;;;;5089614;28;20213;-60
2023/08/27 07:13:57;;;;;;;7.70;3.43;;;16.00;99.90;;;;;;5093835;28;20530;-60
2023/08/27 07:16:23;;;;;;;5.60;3.23;;;16.10;99.90;;;;;;5073511;28;20424;-61
2023/08/27 07:18:49;;;;;;;4.00;3.30;;;16.10;99.90;;;;;;5070846;28;20696;-61
2023/08/27 07:21:14;;;;;;;6.57;3.30;;;16.10;99.90;;;;;;5088506;28;20204;-59
2023/08/27 07:23:40;;;;;;;5.77;3.30;;;16.10;99.90;;;;;;5086263;28;20174;-60
2023/08/27 07:26:06;;;;;;;4.97;3.57;;;16.10;99.90;;;;;;5090034;28;20166;-59
2023/08/27 07:28:32;;;;;;;6.13;3.67;;;16.10;99.90;;;;;;5086401;28;20665;-61
2023/08/27 07:30:57;;;;;;;5.20;3.40;;;16.10;99.90;;;;;;5070304;28;20196;-62
2023/08/27 07:33:23;;;;;;;3.83;3.30;;;16.20;99.90;;;;;;5090284;28;20834;-61
2023/08/27 07:35:48;;;;;;;10.70;3.00;;;16.10;99.90;;;;;;5084205;28;20181;-60
2023/08/27 07:38:14;;;;;;;5.80;3.07;;;16.20;99.90;;;;;;5091629;28;20190;-60
2023/08/27 07:40:40;;;;;;;3.80;3.10;;;16.20;99.90;;;;;;5081542;28;20261;-61
2023/08/27 07:43:06;;;;;;;6.90;3.00;;;16.20;99.90;;;;;;5092369;28;20165;-61
2023/08/27 07:45:32;;;;;;;4.50;2.70;;;16.20;99.90;;;;;;5084619;28;20424;-60
2023/08/27 07:47:58;;;;;;;5.50;2.97;;;16.10;99.90;;;;;;5092665;28;20182;-62
2023/08/27 07:50:25;;;;;;;4.70;2.83;;;16.10;99.90;;;;;;5089846;28;20420;-62
2023/08/27 07:52:51;;;;;;;6.60;3.23;;;16.00;99.90;;;;;;5078754;28;20236;-60
2023/08/27 07:55:16;;;;;;;7.47;3.00;;;16.10;99.90;;;;;;5086996;28;20467;-61
2023/08/27 07:57:42;;;;;;;4.60;3.00;;;16.10;99.90;;;;;;5092979;28;20227;-60
2023/08/27 08:00:08;;;;;;;5.17;2.93;;;16.10;99.90;;;;;;5085167;28;20174;-61
2023/08/27 08:02:34;;;;;;;6.17;3.03;;;16.10;99.90;;;;;;5089594;28;20190;-60
2023/08/27 08:05:01;;;;;;;4.07;2.77;;;16.10;99.90;;;;;;5065483;28;20949;-59
2023/08/27 08:07:27;;;;;;;8.60;2.80;;;16.10;99.90;;;;;;5090239;28;20170;-61
2023/08/27 08:09:52;;;;;;;5.30;3.00;;;16.10;99.90;;;;;;5080845;28;20482;-60
2023/08/27 08:12:19;;;;;;;3.67;2.77;;;16.10;99.90;;;;;;5091496;28;20189;-59
2023/08/27 08:14:44;;;;;;;5.43;3.10;;;16.10;99.90;;;;;;5087614;28;20217;-60
2023/08/27 08:17:11;;;;;;;4.00;2.80;;;16.10;99.90;;;;;;5083676;28;20459;-60
2023/08/27 08:19:37;;;;;;;7.23;3.10;;;16.10;99.90;;;;;;5087802;28;20169;-60
2023/08/27 08:22:03;;;;;;;5.70;3.00;;;16.10;99.90;;;;;;5089077;28;20442;-60
2023/08/27 08:24:28;;;;;;;7.87;3.60;;;16.10;99.90;;;;;;5087370;28;20200;-59
2023/08/27 08:26:54;;;;;;;3.80;2.80;;;16.20;99.90;;;;;;5085563;28;20178;-60
2023/08/27 08:29:20;;;;;;;8.10;3.17;;;16.10;99.90;;;;;;5085902;28;20174;-60
2023/08/27 08:31:46;;;;;;;5.27;3.63;;;16.10;99.90;;;;;;5089034;28;20197;-60
2023/08/27 08:34:12;;;;;;;7.33;3.00;;;16.10;99.90;;;;;;5089291;28;20427;-60
2023/08/27 08:36:37;;;;;;;4.07;2.90;;;16.10;99.90;;;;;;5083682;28;20177;-60
2023/08/27 08:39:03;;;;;;;5.50;2.90;;;16.20;99.90;;;;;;5088907;28;20205;-60
2023/08/27 08:41:29;;;;;;;8.40;3.60;;;16.20;99.90;;;;;;5086649;28;20188;-60
2023/08/27 08:44:09;;;;;;;6.10;3.03;;;16.30;99.90;;;;;;5087624;28;20469;-60
2023/08/27 08:46:36;;;;;;;4.37;3.30;;;16.30;99.90;;;;;;5087284;28;20174;-60
2023/08/27 08:49:03;;;;;;;5.13;3.03;;;16.30;99.90;;;;;;5086100;28;20430;-60
2023/08/27 08:51:30;;;;;;;4.77;2.93;;;16.30;99.90;;;;;;5086354;28;20470;-59
2023/08/27 08:54:03;;;;;;;4.57;2.93;;;16.30;99.90;;;;;;5090993;28;20920;-60
2023/08/27 08:56:36;;;;;;;4.87;3.00;;;16.30;99.90;;;;;;5088901;28;20412;-61
2023/08/27 08:59:03;;;;;;;4.30;2.80;;;16.30;99.90;;;;;;5064132;28;20455;-60
2023/08/27 09:01:29;;;;;;;6.40;2.30;;;16.30;99.90;;;;;;5086678;28;21021;-61
2023/08/27 09:03:56;;;;;;;8.53;4.00;;;16.30;99.90;;;;;;5088298;28;20428;-62
2023/08/27 09:06:23;;;;;;;5.13;2.90;;;16.40;99.90;;;;;;5088525;28;20427;-60
2023/08/27 09:08:50;;;;;;;4.67;2.80;;;16.40;99.90;;;;;;5080519;28;20452;-60
2023/08/27 09:11:22;;;;;;;6.93;3.23;;;16.50;99.90;;;;;;5087686;28;20462;-60
2023/08/27 09:13:48;;;;;;;4.63;2.80;;;16.50;99.90;;;;;;5083411;28;20526;-60
2023/08/27 09:16:13;;;;;;;5.50;3.00;;;16.60;99.90;;;;;;5081495;28;20531;-60
2023/08/27 09:18:39;;;;;;;6.47;3.40;;;16.60;99.90;;;;;;5084146;28;20213;-60
2023/08/27 09:21:06;;;;;;;4.57;3.10;;;16.60;99.90;;;;;;5088738;28;20643;-60
2023/08/27 09:23:37;;;;;;;3.93;2.67;;;16.60;99.90;;;;;;5086442;28;20185;-61
2023/08/27 09:26:06;;;;;;;4.17;3.00;;;16.70;99.90;;;;;;5067317;28;20420;-61
2023/08/27 09:28:35;;;;;;;3.33;2.80;;;16.80;99.90;;;;;;5085119;28;20455;-60
2023/08/27 09:31:04;;;;;;;3.17;2.13;;;16.80;99.90;;;;;;5090353;28;20500;-60
2023/08/27 09:33:39;;;;;;;5.43;2.57;;;16.90;99.90;;;;;;5088111;28;20454;-60
2023/08/27 09:36:05;;;;;;;4.90;2.70;;;16.90;99.90;;;;;;5084010;28;20431;-60
2023/08/27 09:38:32;;;;;;;5.90;2.60;;;17.00;99.90;;;;;;5085983;28;21032;-61
2023/08/27 09:41:15;;;;;;;3.40;2.50;;;16.90;99.90;;;;;;5085925;28;20189;-60
2023/08/27 09:43:41;;;;;;;4.63;2.90;;;16.90;99.90;;;;;;5086642;28;20484;-61
2023/08/27 09:46:10;;;;;;;4.70;2.60;;;16.90;99.90;;;;;;5086850;28;20418;-60
2023/08/27 09:48:36;;;;;;;2.77;2.27;;;16.90;99.90;;;;;;5083617;28;20458;-60
2023/08/27 09:51:04;;;;;;;4.83;2.50;;;16.90;99.90;;;;;;5087242;28;20443;-60
2023/08/27 09:53:30;;;;;;;4.17;2.37;;;16.90;99.90;;;;;;5085960;28;20193;-60
2023/08/27 09:55:56;;;;;;;3.07;2.50;;;16.90;99.90;;;;;;5085566;28;20491;-60
2023/08/27 09:58:28;;;;;;;2.97;2.20;;;16.90;99.90;;;;;;5089218;28;20196;-60
2023/08/27 10:00:59;;;;;;;3.40;2.53;;;16.90;99.90;;;;;;5089332;28;21878;-60
2023/08/27 10:03:26;;;;;;;5.60;2.57;;;16.90;99.90;;;;;;5085651;28;20519;-59
2023/08/27 10:05:51;;;;;;;2.53;2.00;;;16.80;99.90;;;;;;5085757;28;20420;-60
2023/08/27 10:08:17;;;;;;;5.40;2.57;;;16.80;99.90;;;;;;5086117;28;20420;-60
2023/08/27 10:10:43;;;;;;;2.93;2.50;;;16.90;99.90;;;;;;5091366;28;20185;-60
2023/08/27 10:13:10;;;;;;;4.23;2.53;;;16.90;99.90;;;;;;5084275;28;20205;-60
2023/08/27 10:15:36;;;;;;;3.70;2.50;;;16.90;99.90;;;;;;5084165;28;20222;-62
2023/08/27 10:18:04;;;;;;;2.77;1.80;;;17.00;99.90;;;;;;5092163;28;20491;-60
2023/08/27 10:20:31;;;;;;;3.23;2.53;;;17.00;99.90;;;;;;5083397;28;20871;-62
2023/08/27 10:22:57;;;;;;;5.20;2.60;;;17.00;99.90;;;;;;5089082;28;20930;-61
2023/08/27 10:25:24;;;;;;;4.07;3.33;;;17.00;99.90;;;;;;5086561;28;20433;-61
2023/08/27 10:27:51;;;;;;;2.93;2.13;;;17.00;99.90;;;;;;5092408;28;20516;-61
2023/08/27 10:30:18;;;;;;;2.47;1.97;;;16.90;99.90;;;;;;5091826;28;20426;-61
2023/08/27 10:32:45;;;;;;;4.53;3.00;;;16.90;99.90;;;;;;5091239;28;20461;-60
2023/08/27 10:35:11;;;;;;;5.70;3.50;;;16.80;99.90;;;;;;5089320;28;20435;-60
2023/08/27 10:37:41;;;;;;;4.93;3.13;;;16.80;99.90;;;;;;5090934;28;21013;-61
2023/08/27 10:40:09;;;;;;;4.50;3.17;;;16.70;99.90;;;;;;5085944;28;20425;-61
2023/08/27 10:42:36;;;;;;;3.53;2.33;;;16.70;99.90;;;;;;5087497;28;20439;-60
2023/08/27 10:45:16;;;;;;;6.00;2.93;;;16.70;99.90;;;;;;5091182;28;20527;-61
2023/08/27 10:48:00;;;;;;;3.47;2.50;;;16.70;99.90;;;;;;5091077;28;20423;-61
2023/08/27 10:50:26;;;;;;;4.53;2.67;;;16.70;99.90;;;;;;5086282;28;20484;-60
2023/08/27 10:52:52;;;;;;;3.90;2.30;;;16.60;99.90;;;;;;5092246;28;20459;-59
2023/08/27 10:55:34;;;;;;;3.70;2.53;;;16.60;99.90;;;;;;5074525;28;20177;-59
2023/08/27 10:58:14;;;;;;;3.67;2.53;;;16.60;99.90;;;;;;5085739;28;20262;-60
2023/08/27 11:01:05;;;;;;;4.90;2.90;;;16.60;99.90;;;;;;5086741;28;20431;-59
2023/08/27 11:03:56;;;;;;;5.10;2.97;;;16.60;99.90;;;;;;5091923;28;20418;-59
2023/08/27 11:06:43;;;;;;;5.10;3.13;;;16.60;99.90;;;;;;5089896;28;20436;-59
2023/08/27 11:09:27;;;;;;;6.43;3.00;;;16.60;99.90;;;;;;5082670;28;20473;-59
2023/08/27 11:11:55;;;;;;;4.20;2.20;;;16.60;99.90;;;;;;5083875;28;20455;-60
2023/08/27 11:14:24;;;;;;;9.20;2.60;;;16.50;99.90;;;;;;5084967;28;20530;-59
2023/08/27 11:17:03;;;;;;;5.63;3.90;;;16.50;99.90;;;;;;5085386;28;20434;-60
2023/08/27 11:19:34;;;;;;;6.63;4.60;;;16.40;99.90;;;;;;5089748;28;20412;-60
2023/08/27 11:22:05;;;;;;;6.93;3.63;;;16.50;99.90;;;;;;5072626;28;20431;-60
2023/08/27 11:24:31;;;;;;;3.80;2.23;;;16.50;99.90;;;;;;5088199;28;20442;-59
2023/08/27 11:27:02;;;;;;;4.13;2.80;;;16.50;99.90;;;;;;5086970;28;20789;-61
2023/08/27 11:29:28;;;;;;;5.07;3.57;;;16.50;99.90;;;;;;5089051;28;20205;-60
2023/08/27 11:31:56;;;;;;;4.57;3.00;;;16.60;99.90;;;;;;5086395;28;20447;-60
2023/08/27 11:34:22;;;;;;;4.60;2.97;;;16.60;99.90;;;;;;5089148;28;20435;-60
2023/08/27 11:36:49;;;;;;;4.40;2.57;;;16.70;99.90;;;;;;5091229;28;20416;-61
2023/08/27 11:39:16;;;;;;;4.73;3.10;;;16.70;99.90;;;;;;5089616;28;20674;-60
2023/08/27 11:41:44;;;;;;;2.90;2.10;;;16.70;99.90;;;;;;5088335;28;20951;-62
2023/08/27 11:44:10;;;;;;;3.60;2.50;;;16.80;99.90;;;;;;5083241;28;20428;-61
2023/08/27 11:46:37;;;;;;;3.53;2.70;;;16.80;99.90;;;;;;5089736;28;20416;-60
2023/08/27 11:49:05;;;;;;;3.20;2.33;;;16.80;99.90;;;;;;5068454;28;20447;-60
2023/08/27 11:51:31;;;;;;;3.10;2.17;;;16.80;99.90;;;;;;5087377;28;20946;-60
2023/08/27 11:53:58;;;;;;;4.40;2.30;;;16.90;99.90;;;;;;5088897;28;20428;-61
2023/08/27 11:56:24;;;;;;;4.70;3.00;;;16.90;99.90;;;;;;5088451;28;20516;-60
2023/08/27 11:58:51;;;;;;;3.43;2.30;;;16.80;99.90;;;;;;5088624;28;20616;-62
2023/08/27 12:01:19;;;;;;;4.13;2.80;;;16.80;99.90;;;;;;5088190;28;20442;-60
2023/08/27 12:03:49;;;;;;;3.97;2.67;;;16.70;99.90;;;;;;5087797;28;21154;-61
2023/08/27 12:06:20;;;;;;;4.00;3.20;;;16.70;99.90;;;;;;5087272;28;20424;-60
2023/08/27 12:08:50;;;;;;;2.70;2.10;;;16.70;99.90;;;;;;5081988;28;20435;-58
2023/08/27 12:11:18;;;;;;;3.83;2.50;;;16.70;99.90;;;;;;5087873;28;20469;-61
2023/08/27 12:13:53;;;;;;;3.47;2.60;;;16.70;99.90;;;;;;5088962;28;20439;-60
2023/08/27 12:16:31;;;;;;;4.17;2.60;;;16.70;99.90;;;;;;5087672;28;20435;-61
2023/08/27 12:19:05;;;;;;;2.97;2.10;;;16.70;99.90;;;;;;5087167;28;20467;-60
2023/08/27 12:21:46;;;;;;;3.60;1.97;;;16.70;99.90;;;;;;5088474;28;20471;-60
2023/08/27 12:24:31;;;;;;;3.40;2.20;;;16.80;99.90;;;;;;5081994;28;20459;-60
2023/08/27 12:27:10;;;;;;;2.90;2.40;;;16.80;99.90;;;;;;5077475;28;20530;-60
2023/08/27 12:29:40;;;;;;;3.50;2.00;;;16.80;99.90;;;;;;5084693;28;20462;-60
2023/08/27 12:32:10;;;;;;;3.63;1.93;;;16.70;99.90;;;;;;5070582;28;20951;-61
2023/08/27 12:34:40;;;;;;;3.90;2.40;;;16.80;99.90;;;;;;5081818;28;20463;-61
2023/08/27 12:37:07;;;;;;;2.53;1.90;;;16.70;99.90;;;;;;5088888;28;20454;-60
2023/08/27 12:39:33;;;;;;;3.33;1.70;;;16.70;99.90;;;;;;5079098;28;20463;-60
2023/08/27 12:42:00;;;;;;;2.70;2.50;;;16.70;99.90;;;;;;5082572;28;20517;-61
2023/08/27 12:44:26;;;;;;;4.10;2.00;;;16.60;99.90;;;;;;5085208;28;20530;-62
2023/08/27 12:46:51;;;;;;;3.00;2.00;;;16.60;99.90;;;;;;5087480;28;20539;-60